Time;durP1;ratioP1;P1;durP2;ratioP2;P2;SDS_P1;SDS_P2;PMS_P1;PMS_P2;Temp;Humidity;BMP_temperature;BMP_pressure;BME280_temperature;BME280_humidity;BME280_pressure;Samples;Min_cycle;Max_cycle;Signal;HPM_P1;HPM_P2
2021/12/02 00:00:13;;;;;;;6.57;1.70;;;3.20;99.90;;;;;;4984520;28;20234;-47
2021/12/02 00:02:40;;;;;;;6.73;1.30;;;3.20;99.90;;;;;;4997397;28;20231;-46
2021/12/02 00:05:07;;;;;;;5.73;1.40;;;3.20;99.90;;;;;;4992665;28;20206;-46
2021/12/02 00:07:34;;;;;;;3.90;1.00;;;3.20;99.90;;;;;;4995660;28;20904;-46
2021/12/02 00:10:03;;;;;;;5.10;1.07;;;3.30;99.90;;;;;;4983263;28;20210;-46
2021/12/02 00:12:31;;;;;;;5.83;1.23;;;3.40;99.90;;;;;;4987179;28;20253;-47
2021/12/02 00:15:04;;;;;;;7.20;1.70;;;3.50;99.90;;;;;;5007364;28;20933;-46
2021/12/02 00:17:36;;;;;;;5.97;1.17;;;3.60;99.90;;;;;;4988981;28;20222;-47
2021/12/02 00:23:14;;;;;;;6.03;1.13;;;3.60;99.90;;;;;;4992434;28;20243;-46
2021/12/02 00:25:41;;;;;;;8.13;1.47;;;3.70;99.90;;;;;;5005876;28;20201;-46
2021/12/02 00:28:09;;;;;;;7.63;1.63;;;3.70;99.90;;;;;;5007421;28;20217;-46
2021/12/02 00:30:38;;;;;;;7.67;1.87;;;3.70;99.90;;;;;;4980773;28;20779;-46
2021/12/02 00:33:06;;;;;;;9.43;1.77;;;3.70;99.90;;;;;;4997030;28;21023;-46
2021/12/02 00:35:33;;;;;;;4.13;1.00;;;3.70;99.90;;;;;;4986652;28;20209;-46
2021/12/02 00:38:02;;;;;;;6.70;1.30;;;3.70;99.90;;;;;;5008965;28;20212;-46
2021/12/02 00:40:30;;;;;;;6.57;1.63;;;3.70;99.90;;;;;;5004499;28;20192;-46
2021/12/02 00:43:00;;;;;;;8.77;1.67;;;3.70;99.90;;;;;;5004177;28;20314;-47
2021/12/02 00:45:27;;;;;;;6.23;1.70;;;3.70;99.90;;;;;;4981620;28;20217;-46
2021/12/02 00:47:55;;;;;;;16.03;2.00;;;3.80;99.90;;;;;;5000939;28;20730;-46
2021/12/02 00:50:23;;;;;;;7.23;1.90;;;3.70;99.90;;;;;;4996789;28;20208;-46
2021/12/02 00:52:51;;;;;;;7.63;1.53;;;3.80;99.90;;;;;;5012253;28;20221;-46
2021/12/02 00:55:19;;;;;;;7.33;1.77;;;3.80;99.90;;;;;;5011411;28;20200;-46
2021/12/02 00:57:48;;;;;;;8.30;1.53;;;3.80;99.90;;;;;;5001023;28;20218;-46
2021/12/02 01:00:15;;;;;;;5.77;1.50;;;3.80;99.90;;;;;;4983618;28;20220;-47
2021/12/02 01:02:44;;;;;;;10.43;1.57;;;3.70;99.90;;;;;;5001216;28;20239;-46
2021/12/02 01:05:12;;;;;;;6.73;1.27;;;3.70;99.90;;;;;;4999211;28;20299;-46
2021/12/02 01:07:39;;;;;;;9.27;1.53;;;3.70;99.90;;;;;;4977846;28;20204;-47
2021/12/02 01:10:08;;;;;;;4.60;1.13;;;3.70;99.90;;;;;;5008557;28;20208;-47
2021/12/02 01:12:36;;;;;;;10.30;1.60;;;3.70;99.90;;;;;;4990071;28;21395;-46
2021/12/02 01:15:03;;;;;;;13.20;1.67;;;3.60;99.90;;;;;;4968138;28;20216;-46
2021/12/02 01:17:30;;;;;;;6.43;2.17;;;3.60;99.90;;;;;;4998460;28;20301;-47
2021/12/02 01:19:57;;;;;;;8.83;2.07;;;3.70;99.90;;;;;;4998275;28;20598;-47
2021/12/02 01:22:32;;;;;;;9.67;1.80;;;3.70;99.90;;;;;;4992201;28;20238;-47
2021/12/02 01:24:59;;;;;;;3.40;0.93;;;3.50;99.90;;;;;;5014561;28;20206;-46
2021/12/02 01:27:26;;;;;;;5.60;1.53;;;3.50;99.90;;;;;;4993788;28;20351;-46
2021/12/02 01:29:54;;;;;;;11.40;1.60;;;3.50;99.90;;;;;;5010748;28;20207;-44
2021/12/02 01:32:22;;;;;;;10.73;1.80;;;3.50;99.90;;;;;;4963908;28;20221;-43
2021/12/02 01:34:50;;;;;;;7.73;1.60;;;3.50;99.90;;;;;;5009444;28;20205;-43
2021/12/02 01:37:18;;;;;;;4.93;1.17;;;3.60;99.90;;;;;;4989267;28;20282;-44
2021/12/02 01:39:49;;;;;;;7.83;1.33;;;3.70;99.90;;;;;;5007878;28;20313;-44
2021/12/02 01:42:24;;;;;;;5.60;1.30;;;3.70;99.90;;;;;;4987583;28;20215;-43
2021/12/02 01:44:54;;;;;;;6.67;1.27;;;3.60;99.90;;;;;;5002713;28;20285;-43
2021/12/02 01:47:24;;;;;;;4.27;1.30;;;3.60;99.90;;;;;;4985923;28;20352;-43
2021/12/02 01:49:55;;;;;;;7.07;1.40;;;3.60;99.90;;;;;;4997207;28;20608;-43
2021/12/02 01:52:30;;;;;;;11.50;1.60;;;3.60;99.90;;;;;;4995240;28;20265;-44
2021/12/02 01:55:06;;;;;;;4.43;1.00;;;3.60;99.90;;;;;;5002655;28;20593;-44
2021/12/02 01:57:35;;;;;;;10.30;2.13;;;3.60;99.90;;;;;;4991238;28;20552;-45
2021/12/02 02:00:10;;;;;;;2.60;0.70;;;3.60;99.90;;;;;;4992660;28;20288;-43
2021/12/02 02:02:39;;;;;;;3.97;1.53;;;3.60;99.90;;;;;;4990071;28;20235;-44
2021/12/02 02:05:11;;;;;;;5.20;2.07;;;3.60;99.90;;;;;;4995756;28;20209;-44
2021/12/02 02:07:43;;;;;;;4.37;1.20;;;3.50;99.90;;;;;;4983091;28;20212;-44
2021/12/02 02:10:12;;;;;;;5.50;1.47;;;3.60;99.90;;;;;;5005014;28;20201;-44
2021/12/02 02:12:39;;;;;;;6.00;1.30;;;3.50;99.90;;;;;;5001194;28;20232;-44
2021/12/02 02:15:08;;;;;;;5.30;1.10;;;3.50;99.90;;;;;;4995165;28;20218;-44
2021/12/02 02:17:40;;;;;;;5.13;1.27;;;3.40;99.90;;;;;;4995910;28;20283;-43
2021/12/02 02:20:11;;;;;;;4.90;1.50;;;3.40;99.90;;;;;;4986200;28;20207;-45
2021/12/02 02:22:40;;;;;;;2.80;0.90;;;3.50;99.90;;;;;;5000880;28;20233;-44
2021/12/02 02:25:12;;;;;;;3.03;1.17;;;3.50;99.90;;;;;;4979737;28;21097;-44
2021/12/02 02:27:39;;;;;;;5.33;1.27;;;3.50;99.90;;;;;;4997476;28;20202;-44
2021/12/02 02:30:09;;;;;;;6.10;1.20;;;3.50;99.90;;;;;;4988794;28;20984;-44
2021/12/02 02:32:37;;;;;;;4.73;1.30;;;3.50;99.90;;;;;;4999616;28;20798;-44
2021/12/02 02:35:05;;;;;;;4.90;1.40;;;3.50;99.90;;;;;;4985330;28;20934;-44
2021/12/02 02:37:35;;;;;;;12.27;1.47;;;3.50;99.90;;;;;;4995192;28;20269;-44
2021/12/02 02:40:08;;;;;;;6.90;1.57;;;3.40;99.90;;;;;;4992968;28;20233;-44
2021/12/02 02:42:36;;;;;;;3.83;1.27;;;3.50;99.90;;;;;;5005890;28;21016;-44
2021/12/02 02:45:04;;;;;;;4.77;1.00;;;3.40;99.90;;;;;;4999430;28;20194;-44
2021/12/02 02:47:32;;;;;;;3.60;1.20;;;3.50;99.90;;;;;;4994980;28;20216;-44
2021/12/02 02:49:59;;;;;;;2.53;1.13;;;3.40;99.90;;;;;;4967568;28;20301;-44
2021/12/02 02:52:26;;;;;;;3.27;1.07;;;3.40;99.90;;;;;;4999500;28;20232;-44
2021/12/02 02:54:54;;;;;;;6.47;1.33;;;3.20;99.90;;;;;;4992667;28;20219;-44
2021/12/02 02:57:25;;;;;;;8.77;1.47;;;3.10;99.90;;;;;;4991301;28;20201;-43
2021/12/02 03:00:03;;;;;;;7.77;1.27;;;3.00;99.90;;;;;;5006424;28;20207;-43
2021/12/02 03:02:35;;;;;;;7.43;1.07;;;3.00;99.90;;;;;;4988822;28;21104;-43
2021/12/02 03:05:12;;;;;;;7.17;1.40;;;3.00;99.90;;;;;;4984993;28;20855;-44
2021/12/02 03:07:41;;;;;;;3.33;1.20;;;3.00;99.90;;;;;;5002942;28;20207;-44
2021/12/02 03:10:14;;;;;;;6.00;1.00;;;3.00;99.90;;;;;;5002433;28;20215;-43
2021/12/02 03:12:53;;;;;;;12.37;1.70;;;3.00;99.90;;;;;;5000002;28;20566;-44
2021/12/02 03:18:07;;;;;;;5.63;1.20;;;3.00;99.90;;;;;;4998222;28;20218;-43
2021/12/02 03:20:34;;;;;;;9.70;1.27;;;3.10;99.90;;;;;;4987057;28;20635;-43
2021/12/02 03:23:01;;;;;;;1.63;1.00;;;3.10;99.90;;;;;;5010739;28;20241;-43
2021/12/02 03:25:28;;;;;;;8.80;1.17;;;3.10;99.90;;;;;;4996767;28;20977;-44
2021/12/02 03:27:56;;;;;;;5.10;1.20;;;3.10;99.90;;;;;;4977724;28;20215;-43
2021/12/02 03:30:23;;;;;;;5.50;1.47;;;3.10;99.90;;;;;;4994633;28;20197;-44
2021/12/02 03:32:50;;;;;;;7.33;1.03;;;3.10;99.90;;;;;;5006836;28;20751;-44
2021/12/02 03:35:17;;;;;;;4.63;1.33;;;3.10;99.90;;;;;;4954804;28;20209;-44
2021/12/02 03:37:43;;;;;;;3.57;1.30;;;3.00;99.90;;;;;;4999296;28;20204;-43
2021/12/02 03:40:12;;;;;;;5.70;1.20;;;3.00;99.90;;;;;;5011680;28;20206;-44
2021/12/02 03:42:45;;;;;;;4.27;1.40;;;3.10;99.90;;;;;;4992585;28;20310;-44
2021/12/02 03:45:14;;;;;;;2.57;1.10;;;3.10;99.90;;;;;;4995248;28;20239;-44
2021/12/02 03:47:41;;;;;;;4.00;1.20;;;3.10;99.90;;;;;;4997965;28;20203;-44
2021/12/02 03:50:09;;;;;;;3.73;1.20;;;3.10;99.90;;;;;;5003021;28;20220;-44
2021/12/02 03:52:36;;;;;;;2.30;0.70;;;3.10;99.90;;;;;;4963401;28;20231;-44
2021/12/02 03:55:03;;;;;;;3.00;1.20;;;3.10;99.90;;;;;;5006578;28;20205;-44
2021/12/02 03:57:32;;;;;;;6.27;1.33;;;3.10;99.90;;;;;;4985510;28;20212;-44
2021/12/02 03:59:59;;;;;;;3.00;1.23;;;3.10;99.90;;;;;;5005489;28;20213;-43
2021/12/02 04:02:27;;;;;;;4.30;0.90;;;3.10;99.90;;;;;;5001037;28;20228;-44
2021/12/02 04:04:54;;;;;;;7.70;1.30;;;3.10;99.90;;;;;;4999844;28;20220;-43
2021/12/02 04:07:25;;;;;;;7.50;1.60;;;3.20;99.90;;;;;;4972551;28;20222;-44
2021/12/02 04:09:52;;;;;;;6.60;1.43;;;3.30;99.90;;;;;;5009983;28;20291;-44
2021/12/02 04:12:23;;;;;;;2.73;0.97;;;3.30;99.90;;;;;;4998245;28;20246;-44
2021/12/02 04:14:55;;;;;;;3.53;1.30;;;3.40;99.90;;;;;;5011722;28;20723;-43
2021/12/02 04:17:29;;;;;;;4.30;1.10;;;3.30;99.90;;;;;;5005476;28;20291;-43
2021/12/02 04:19:57;;;;;;;7.97;1.20;;;3.40;99.90;;;;;;4996696;28;20209;-45
2021/12/02 04:22:24;;;;;;;7.17;1.17;;;3.40;99.90;;;;;;4981279;28;20232;-43
2021/12/02 04:24:51;;;;;;;5.27;1.00;;;3.50;99.90;;;;;;5010546;28;20221;-44
2021/12/02 04:27:18;;;;;;;7.47;1.30;;;3.50;99.90;;;;;;4977587;28;20213;-44
2021/12/02 04:29:45;;;;;;;4.80;1.27;;;3.50;99.90;;;;;;5000940;28;20212;-44
2021/12/02 04:32:12;;;;;;;3.07;1.10;;;3.50;99.90;;;;;;5004146;28;20295;-43
2021/12/02 04:34:39;;;;;;;6.20;1.30;;;3.50;99.90;;;;;;4989011;28;20665;-39
2021/12/02 04:37:07;;;;;;;7.70;1.33;;;3.50;99.90;;;;;;4988437;28;20210;-45
2021/12/02 04:39:34;;;;;;;3.77;0.77;;;3.50;99.90;;;;;;5001332;28;20212;-39
2021/12/02 04:42:01;;;;;;;1.07;0.53;;;3.20;99.90;;;;;;5001512;28;20223;-39
2021/12/02 04:44:28;;;;;;;6.90;0.97;;;3.00;99.90;;;;;;4995425;28;20966;-39
2021/12/02 04:46:54;;;;;;;2.57;0.83;;;2.70;99.90;;;;;;5003493;28;20445;-39
2021/12/02 04:49:21;;;;;;;1.80;0.83;;;2.60;99.90;;;;;;5001705;28;20801;-39
2021/12/02 04:51:48;;;;;;;1.80;0.73;;;2.50;99.90;;;;;;4974625;28;20222;-39
2021/12/02 04:54:17;;;;;;;2.63;0.90;;;2.60;99.90;;;;;;5014056;28;20222;-39
2021/12/02 04:56:43;;;;;;;4.67;0.90;;;2.50;99.90;;;;;;5004125;28;20213;-40
2021/12/02 04:59:10;;;;;;;4.60;0.60;;;2.50;99.90;;;;;;4999040;28;20210;-39
2021/12/02 05:01:37;;;;;;;3.73;0.93;;;2.50;99.90;;;;;;4988693;28;20216;-39
2021/12/02 05:04:05;;;;;;;0.73;0.57;;;2.40;99.90;;;;;;5009996;28;20230;-39
2021/12/02 05:06:31;;;;;;;1.83;0.77;;;2.30;99.90;;;;;;5007506;28;20206;-39
2021/12/02 05:08:58;;;;;;;1.53;0.80;;;2.30;99.90;;;;;;4980943;28;20209;-39
2021/12/02 05:11:27;;;;;;;4.43;0.83;;;2.10;99.90;;;;;;5009555;28;20753;-39
2021/12/02 05:13:53;;;;;;;3.67;0.70;;;2.00;99.90;;;;;;4976984;28;20228;-39
2021/12/02 05:16:20;;;;;;;0.60;0.40;;;1.90;99.90;;;;;;4988096;28;20985;-39
2021/12/02 05:18:47;;;;;;;3.33;0.77;;;2.00;99.90;;;;;;5007653;28;20202;-39
2021/12/02 05:21:14;;;;;;;3.27;0.70;;;2.00;99.90;;;;;;4984160;28;20229;-39
2021/12/02 05:23:41;;;;;;;2.57;0.40;;;2.00;99.90;;;;;;4980579;28;21442;-41
2021/12/02 05:26:08;;;;;;;3.93;0.90;;;2.10;99.90;;;;;;5000601;28;20221;-40
2021/12/02 05:28:36;;;;;;;4.50;0.83;;;2.10;99.90;;;;;;4977941;28;20843;-39
2021/12/02 05:31:03;;;;;;;1.30;0.57;;;2.10;99.90;;;;;;4991329;28;20217;-39
2021/12/02 05:33:30;;;;;;;6.70;1.13;;;2.20;99.90;;;;;;4992659;28;20226;-39
2021/12/02 05:35:57;;;;;;;4.03;0.60;;;2.40;99.90;;;;;;4995055;28;20206;-39
2021/12/02 05:38:24;;;;;;;2.70;0.40;;;2.40;99.90;;;;;;4978053;28;20936;-39
2021/12/02 05:40:51;;;;;;;7.73;1.07;;;2.40;99.90;;;;;;4969238;28;20218;-40
2021/12/02 05:43:18;;;;;;;3.77;0.73;;;2.40;99.90;;;;;;4985303;28;20235;-39
2021/12/02 05:45:46;;;;;;;3.33;0.73;;;2.40;99.90;;;;;;4976897;28;20231;-40
2021/12/02 05:48:13;;;;;;;3.43;1.00;;;2.50;99.90;;;;;;4982911;28;20217;-40
2021/12/02 05:50:40;;;;;;;3.53;1.30;;;2.50;99.90;;;;;;4972228;28;20213;-39
2021/12/02 05:53:07;;;;;;;2.60;0.70;;;2.50;99.90;;;;;;4967432;28;20239;-40
2021/12/02 05:55:34;;;;;;;2.20;0.90;;;2.60;99.90;;;;;;4976564;28;20213;-40
2021/12/02 05:58:01;;;;;;;3.23;0.90;;;2.70;99.90;;;;;;4988376;28;20208;-39
2021/12/02 06:00:28;;;;;;;5.33;1.43;;;2.60;99.90;;;;;;4978462;28;20213;-39
2021/12/02 06:02:56;;;;;;;1.10;0.37;;;2.60;99.90;;;;;;4980393;28;20230;-40
2021/12/02 06:05:23;;;;;;;2.60;0.70;;;2.60;99.90;;;;;;4986877;28;20233;-40
2021/12/02 06:07:52;;;;;;;3.73;0.80;;;2.50;99.90;;;;;;4971550;28;20224;-40
2021/12/02 06:10:19;;;;;;;2.17;0.70;;;2.50;99.90;;;;;;4985714;28;20219;-40
2021/12/02 06:12:46;;;;;;;2.00;0.50;;;2.60;99.90;;;;;;4964498;28;20233;-40
2021/12/02 06:15:13;;;;;;;2.03;1.00;;;2.60;99.90;;;;;;4996018;28;20214;-40
2021/12/02 06:17:42;;;;;;;0.93;0.53;;;2.60;99.90;;;;;;4971607;28;20228;-40
2021/12/02 06:20:13;;;;;;;2.07;1.00;;;2.60;99.90;;;;;;4978931;28;20409;-40
2021/12/02 06:22:40;;;;;;;4.73;0.73;;;2.50;99.90;;;;;;4987526;28;20242;-40
2021/12/02 06:25:44;;;;;;;4.83;1.10;;;2.60;99.90;;;;;;4976684;28;20230;-40
2021/12/02 06:28:06;;;;;;;7.53;0.97;;;2.60;99.90;;;;;;4983674;28;20329;-40
2021/12/02 06:30:33;;;;;;;3.10;0.87;;;2.60;99.90;;;;;;5007496;28;20201;-40
2021/12/02 06:33:00;;;;;;;4.00;1.23;;;2.60;99.90;;;;;;4990840;28;20232;-39
2021/12/02 06:35:29;;;;;;;5.03;1.10;;;2.50;99.90;;;;;;5003790;28;20204;-40
2021/12/02 06:37:56;;;;;;;2.03;0.67;;;2.50;99.90;;;;;;4996025;28;20310;-40
2021/12/02 06:40:23;;;;;;;4.13;0.83;;;2.40;99.90;;;;;;4971510;28;20222;-40
2021/12/02 06:42:51;;;;;;;2.37;0.63;;;2.50;99.90;;;;;;4981037;28;20765;-39
2021/12/02 06:45:19;;;;;;;3.33;0.77;;;2.50;99.90;;;;;;4987850;28;20827;-39
2021/12/02 06:47:46;;;;;;;7.83;1.00;;;2.50;99.90;;;;;;4985418;28;20204;-40
2021/12/02 06:50:16;;;;;;;4.90;0.80;;;2.60;99.90;;;;;;4985654;28;20209;-40
2021/12/02 06:52:45;;;;;;;2.47;1.27;;;2.50;99.90;;;;;;4986997;28;20240;-40
2021/12/02 06:55:13;;;;;;;1.10;0.67;;;2.60;99.90;;;;;;4978793;28;20212;-40
2021/12/02 06:57:41;;;;;;;6.43;1.37;;;2.70;99.90;;;;;;4981855;28;20222;-40
2021/12/02 07:00:11;;;;;;;1.40;0.93;;;2.60;99.90;;;;;;4998794;28;20205;-40
2021/12/02 07:02:39;;;;;;;3.50;0.90;;;2.60;99.90;;;;;;4982817;28;20254;-40
2021/12/02 07:05:07;;;;;;;1.37;0.77;;;2.70;99.90;;;;;;4994495;28;20231;-40
2021/12/02 07:07:36;;;;;;;3.90;1.50;;;2.60;99.90;;;;;;4992089;28;20202;-39
2021/12/02 07:10:05;;;;;;;2.43;0.90;;;2.60;99.90;;;;;;4995619;28;20234;-40
2021/12/02 07:12:33;;;;;;;3.73;1.00;;;2.60;99.90;;;;;;4985998;28;20256;-40
2021/12/02 07:15:05;;;;;;;2.40;0.70;;;2.60;99.90;;;;;;4987420;28;20770;-40
2021/12/02 07:17:33;;;;;;;2.67;0.63;;;2.60;99.90;;;;;;4968718;28;20983;-40
2021/12/02 07:20:00;;;;;;;4.87;1.10;;;2.60;99.90;;;;;;4990950;28;20219;-40
2021/12/02 07:22:27;;;;;;;2.50;0.87;;;2.80;99.90;;;;;;4992198;28;20245;-40
2021/12/02 07:24:54;;;;;;;2.87;0.87;;;2.60;99.90;;;;;;4988412;28;20240;-40
2021/12/02 07:27:22;;;;;;;1.43;0.70;;;2.70;99.90;;;;;;5002783;28;20761;-40
2021/12/02 07:29:49;;;;;;;2.50;0.80;;;2.60;99.90;;;;;;4982761;28;20236;-40
2021/12/02 07:32:16;;;;;;;3.57;0.70;;;2.40;99.90;;;;;;4990507;28;20210;-40
2021/12/02 07:34:45;;;;;;;6.20;0.93;;;2.40;99.90;;;;;;4994860;28;20210;-40
2021/12/02 07:37:15;;;;;;;5.37;1.13;;;2.50;99.90;;;;;;4980509;28;20203;-39
2021/12/02 07:39:42;;;;;;;1.70;1.00;;;2.40;99.90;;;;;;5002689;28;20672;-40
2021/12/02 07:42:09;;;;;;;1.67;0.70;;;2.40;99.90;;;;;;4999129;28;20208;-40
2021/12/02 07:44:38;;;;;;;3.67;0.80;;;2.20;99.90;;;;;;5000643;28;20227;-40
2021/12/02 07:47:07;;;;;;;4.27;1.60;;;2.20;99.90;;;;;;4985787;28;20204;-40
2021/12/02 07:49:34;;;;;;;1.43;1.20;;;2.20;99.90;;;;;;4997366;28;20217;-40
2021/12/02 07:52:02;;;;;;;1.77;1.37;;;2.20;99.90;;;;;;4989601;28;20210;-40
2021/12/02 07:54:32;;;;;;;2.17;1.60;;;2.20;99.90;;;;;;5001896;28;20215;-40
2021/12/02 07:56:59;;;;;;;5.27;2.10;;;2.10;99.90;;;;;;5000428;28;20196;-40
2021/12/02 07:59:27;;;;;;;5.23;1.80;;;2.20;99.90;;;;;;4993520;28;20214;-40
2021/12/02 08:02:00;;;;;;;6.23;1.67;;;2.20;99.90;;;;;;4986716;28;20221;-40
2021/12/02 08:04:27;;;;;;;4.03;1.90;;;2.10;99.90;;;;;;4995750;28;20245;-40
2021/12/02 08:06:54;;;;;;;2.57;1.70;;;2.20;99.90;;;;;;4991269;28;20938;-40
2021/12/02 08:09:22;;;;;;;4.40;1.87;;;2.20;99.90;;;;;;5007206;28;20220;-39
2021/12/02 08:11:49;;;;;;;3.77;1.70;;;2.30;99.90;;;;;;4985950;28;20666;-40
2021/12/02 08:14:17;;;;;;;5.00;1.80;;;2.30;99.90;;;;;;4994170;28;20665;-41
2021/12/02 08:16:44;;;;;;;3.03;1.77;;;2.30;99.90;;;;;;4983559;28;20219;-40
2021/12/02 08:19:12;;;;;;;4.87;1.80;;;2.20;99.90;;;;;;5003243;28;20235;-40
2021/12/02 08:21:39;;;;;;;3.07;1.73;;;2.20;99.90;;;;;;4991659;28;20742;-40
2021/12/02 08:24:06;;;;;;;2.73;2.00;;;2.20;99.90;;;;;;5001265;28;21116;-40
2021/12/02 08:26:34;;;;;;;2.90;1.80;;;2.20;99.90;;;;;;4997882;28;20218;-39
2021/12/02 08:29:01;;;;;;;3.80;2.20;;;2.30;99.90;;;;;;5003899;28;20897;-40
2021/12/02 08:31:28;;;;;;;5.37;2.17;;;2.30;99.90;;;;;;5018052;28;20204;-40
2021/12/02 08:33:55;;;;;;;2.77;2.50;;;2.20;99.90;;;;;;4980468;28;21717;-40
2021/12/02 08:36:26;;;;;;;6.33;2.40;;;2.30;99.90;;;;;;5003341;28;20224;-40
2021/12/02 08:38:53;;;;;;;5.77;2.50;;;2.20;99.90;;;;;;4996745;28;21291;-40
2021/12/02 08:41:21;;;;;;;4.10;2.53;;;2.30;99.90;;;;;;5016812;28;20205;-40
2021/12/02 08:43:49;;;;;;;6.77;2.63;;;2.30;99.90;;;;;;4989676;28;20311;-40
2021/12/02 08:46:18;;;;;;;3.33;2.20;;;2.20;99.90;;;;;;5011457;28;20233;-39
2021/12/02 08:48:47;;;;;;;5.77;2.73;;;2.30;99.90;;;;;;4976533;28;20339;-40
2021/12/02 08:51:14;;;;;;;4.30;2.37;;;2.30;99.90;;;;;;5015885;28;20709;-40
2021/12/02 08:53:42;;;;;;;7.30;2.50;;;2.30;99.90;;;;;;4992079;28;20241;-40
2021/12/02 08:56:09;;;;;;;7.40;2.57;;;2.40;99.90;;;;;;5002576;28;20216;-40
2021/12/02 08:58:38;;;;;;;3.87;2.00;;;2.40;99.90;;;;;;5011430;28;20707;-40
2021/12/02 09:01:05;;;;;;;4.53;2.50;;;2.40;99.90;;;;;;5003233;28;20209;-40
2021/12/02 09:03:33;;;;;;;5.13;2.13;;;2.50;99.90;;;;;;4988901;28;20235;-40
2021/12/02 09:06:00;;;;;;;4.27;2.30;;;2.60;99.90;;;;;;4992623;28;20344;-40
2021/12/02 09:08:27;;;;;;;2.77;2.23;;;2.70;99.90;;;;;;5004713;28;20212;-40
2021/12/02 09:10:56;;;;;;;5.23;2.00;;;2.70;99.90;;;;;;4973613;28;20214;-40
2021/12/02 09:13:23;;;;;;;6.73;1.90;;;2.70;99.90;;;;;;4969544;28;20231;-40
2021/12/02 09:15:50;;;;;;;4.97;2.03;;;2.80;99.90;;;;;;4989731;28;20894;-46
2021/12/02 09:18:17;;;;;;;3.23;2.10;;;2.80;99.90;;;;;;4963828;28;20327;-46
2021/12/02 09:20:44;;;;;;;6.07;1.90;;;2.80;99.90;;;;;;4999413;28;20210;-47
2021/12/02 09:23:13;;;;;;;8.00;1.80;;;2.80;99.90;;;;;;4979368;28;20556;-46
2021/12/02 09:25:40;;;;;;;2.50;1.83;;;2.90;99.90;;;;;;5001042;28;20229;-46
2021/12/02 09:28:09;;;;;;;3.20;1.73;;;2.90;99.90;;;;;;4990863;28;20223;-47
2021/12/02 09:30:37;;;;;;;4.57;1.83;;;2.80;99.90;;;;;;4997275;28;20220;-46
2021/12/02 09:33:04;;;;;;;2.43;1.57;;;2.80;99.90;;;;;;4973525;28;20234;-46
2021/12/02 09:35:31;;;;;;;3.77;1.77;;;2.90;99.90;;;;;;4986496;28;20221;-47
2021/12/02 09:37:58;;;;;;;2.80;1.50;;;2.90;99.90;;;;;;4998652;28;20676;-47
2021/12/02 09:40:25;;;;;;;3.97;1.67;;;2.80;99.90;;;;;;4989018;28;20210;-47
2021/12/02 09:42:52;;;;;;;3.47;1.80;;;2.80;99.90;;;;;;5014617;28;20250;-46
2021/12/02 09:45:21;;;;;;;2.00;1.80;;;2.90;99.90;;;;;;5009203;28;20216;-47
2021/12/02 09:47:49;;;;;;;2.00;1.83;;;2.90;99.90;;;;;;5006967;28;20217;-47
2021/12/02 09:50:24;;;;;;;3.33;1.40;;;2.90;99.90;;;;;;4970528;28;20224;-47
2021/12/02 09:52:52;;;;;;;2.20;1.60;;;2.90;99.90;;;;;;5009641;28;20229;-46
2021/12/02 09:55:23;;;;;;;3.60;2.00;;;2.80;99.90;;;;;;4998769;28;21202;-47
2021/12/02 09:57:54;;;;;;;6.80;3.10;;;2.80;99.90;;;;;;5000168;28;20223;-47
2021/12/02 10:00:29;;;;;;;2.70;1.97;;;2.70;99.90;;;;;;5001659;28;20224;-46
2021/12/02 10:03:01;;;;;;;5.33;2.30;;;2.60;99.90;;;;;;4990996;28;20232;-46
2021/12/02 10:05:36;;;;;;;1.60;1.50;;;2.60;99.90;;;;;;5002939;28;20219;-47
2021/12/02 10:08:06;;;;;;;1.23;1.10;;;2.40;99.90;;;;;;4981657;28;20738;-47
2021/12/02 10:10:37;;;;;;;1.13;0.90;;;2.10;99.90;;;;;;4997749;28;20978;-46
2021/12/02 10:13:25;;;;;;;1.23;1.13;;;1.90;99.90;;;;;;4974333;28;20546;-46
2021/12/02 10:16:22;;;;;;;1.10;1.00;;;1.80;99.90;;;;;;4986320;28;21734;-46
2021/12/02 10:19:02;;;;;;;0.60;0.60;;;1.90;99.90;;;;;;4980903;28;20202;-45
2021/12/02 10:21:36;;;;;;;1.43;1.33;;;2.00;99.90;;;;;;4976826;28;20337;-46
2021/12/02 10:24:06;;;;;;;0.90;0.90;;;1.90;99.90;;;;;;4970443;28;20246;-46
2021/12/02 10:26:39;;;;;;;0.70;0.70;;;2.00;99.90;;;;;;4991509;28;20227;-47
2021/12/02 10:29:11;;;;;;;0.50;0.30;;;2.00;99.90;;;;;;5000706;28;20206;-47
2021/12/02 10:31:42;;;;;;;0.30;0.30;;;2.00;99.90;;;;;;5004189;28;20209;-46
2021/12/02 10:34:09;;;;;;;0.30;0.30;;;2.10;99.90;;;;;;4967319;28;23063;-46
2021/12/02 10:36:39;;;;;;;1.93;0.67;;;2.10;99.90;;;;;;4984311;28;20210;-44
2021/12/02 10:39:12;;;;;;;0.67;0.50;;;2.10;99.90;;;;;;4972958;28;20206;-44
2021/12/02 10:41:43;;;;;;;2.37;1.93;;;2.00;99.90;;;;;;4981017;28;20211;-44
2021/12/02 10:44:19;;;;;;;2.87;1.83;;;2.00;99.90;;;;;;5004358;28;20227;-43
2021/12/02 10:46:56;;;;;;;8.07;3.60;;;2.00;99.90;;;;;;4979950;28;20288;-44
2021/12/02 10:49:25;;;;;;;1.40;0.97;;;2.00;99.90;;;;;;4981973;28;20220;-44
2021/12/02 10:51:54;;;;;;;0.60;0.60;;;2.00;99.90;;;;;;4994889;28;20208;-44
2021/12/02 10:54:22;;;;;;;2.63;1.60;;;2.00;99.90;;;;;;4967691;28;20245;-44
2021/12/02 10:56:51;;;;;;;2.67;1.23;;;2.10;99.90;;;;;;4997324;28;20204;-44
2021/12/02 10:59:35;;;;;;;2.73;1.17;;;2.10;99.90;;;;;;4985739;28;20207;-45
2021/12/02 11:02:06;;;;;;;2.20;1.90;;;2.20;99.90;;;;;;5000709;28;20212;-44
2021/12/02 11:04:43;;;;;;;3.00;2.37;;;2.10;99.90;;;;;;4981033;28;20207;-44
2021/12/02 11:07:21;;;;;;;2.77;1.80;;;2.10;99.90;;;;;;4997161;28;23621;-44
2021/12/02 11:09:49;;;;;;;3.00;2.20;;;2.20;99.90;;;;;;4977884;28;22260;-44
2021/12/02 11:12:19;;;;;;;2.57;1.70;;;2.20;99.90;;;;;;4986634;28;20216;-44
2021/12/02 11:14:55;;;;;;;1.90;1.70;;;2.10;99.90;;;;;;5001842;28;20673;-44
2021/12/02 11:17:29;;;;;;;2.10;1.90;;;2.10;99.90;;;;;;4982201;28;20204;-44
2021/12/02 11:19:56;;;;;;;2.37;2.17;;;2.10;99.90;;;;;;4979250;28;20238;-44
2021/12/02 11:22:24;;;;;;;3.60;2.40;;;2.10;99.90;;;;;;5003280;28;20216;-44
2021/12/02 11:24:52;;;;;;;2.43;1.50;;;2.00;99.90;;;;;;4960549;28;20213;-44
2021/12/02 11:27:21;;;;;;;1.37;1.27;;;2.10;99.90;;;;;;4995628;28;20703;-44
2021/12/02 11:30:07;;;;;;;2.20;1.50;;;2.20;99.90;;;;;;4988619;28;20436;-44
2021/12/02 11:32:47;;;;;;;1.40;1.00;;;2.10;99.90;;;;;;4982450;28;20230;-44
2021/12/02 11:35:20;;;;;;;3.70;1.20;;;2.10;99.90;;;;;;4989710;28;21085;-43
2021/12/02 11:37:51;;;;;;;0.97;0.70;;;2.10;99.90;;;;;;4995798;28;20204;-44
2021/12/02 11:40:20;;;;;;;0.60;0.60;;;2.10;99.90;;;;;;4965031;28;20240;-44
2021/12/02 11:42:50;;;;;;;2.23;0.80;;;2.10;99.90;;;;;;4986259;28;20234;-44
2021/12/02 11:45:18;;;;;;;1.20;0.70;;;2.20;99.90;;;;;;4996070;28;20220;-44
2021/12/02 11:47:47;;;;;;;0.60;0.57;;;2.20;99.90;;;;;;4996630;28;20268;-44
2021/12/02 11:50:16;;;;;;;2.10;0.80;;;2.20;99.90;;;;;;4998801;28;20211;-44
2021/12/02 11:52:43;;;;;;;1.70;1.27;;;2.20;99.90;;;;;;4969065;28;21039;-44
2021/12/02 11:55:14;;;;;;;2.43;1.10;;;2.20;99.90;;;;;;4977153;28;20212;-44
2021/12/02 11:57:42;;;;;;;3.27;1.10;;;2.20;99.90;;;;;;4990080;28;21205;-44
2021/12/02 12:00:11;;;;;;;0.97;0.70;;;2.10;99.90;;;;;;4997826;28;20224;-44
2021/12/02 12:02:40;;;;;;;2.10;0.73;;;2.20;99.90;;;;;;4996615;28;20949;-44
2021/12/02 12:05:09;;;;;;;1.23;0.80;;;2.10;99.90;;;;;;5006403;28;20209;-44
2021/12/02 12:07:46;;;;;;;1.43;0.83;;;2.20;99.90;;;;;;4987103;28;20228;-43
2021/12/02 12:10:27;;;;;;;0.60;0.60;;;2.20;99.90;;;;;;4991298;28;20217;-44
2021/12/02 12:13:14;;;;;;;1.13;0.67;;;2.20;99.90;;;;;;4974159;28;20232;-45
2021/12/02 12:15:44;;;;;;;2.10;0.90;;;2.30;99.90;;;;;;4986952;28;20213;-44
2021/12/02 12:18:18;;;;;;;2.93;0.83;;;2.30;99.90;;;;;;4976771;28;20231;-44
2021/12/02 12:20:54;;;;;;;0.70;0.70;;;2.30;99.90;;;;;;5001024;28;20210;-45
2021/12/02 12:23:37;;;;;;;1.53;0.63;;;2.30;99.90;;;;;;4989267;28;20251;-44
2021/12/02 12:26:35;;;;;;;1.53;0.70;;;2.30;99.90;;;;;;4977253;28;20211;-45
2021/12/02 12:29:19;;;;;;;2.73;1.00;;;2.30;99.90;;;;;;4976894;28;20207;-45
2021/12/02 12:35:09;;;;;;;1.57;0.90;;;2.40;99.90;;;;;;4995747;28;20279;-45
2021/12/02 12:37:56;;;;;;;1.23;0.77;;;2.40;99.90;;;;;;4977690;28;20210;-45
2021/12/02 12:40:27;;;;;;;0.80;0.60;;;2.40;99.90;;;;;;4996815;28;20212;-45
2021/12/02 12:43:34;;;;;;;0.70;0.70;;;2.40;99.90;;;;;;4952546;28;20230;-45
2021/12/02 12:46:21;;;;;;;0.63;0.60;;;2.40;99.90;;;;;;4998607;28;20706;-45
2021/12/02 12:48:49;;;;;;;0.60;0.60;;;2.40;99.90;;;;;;4960249;28;20298;-45
2021/12/02 12:51:29;;;;;;;1.23;0.83;;;2.40;99.90;;;;;;4993442;28;20211;-45
2021/12/02 12:53:59;;;;;;;1.13;0.70;;;2.40;99.90;;;;;;4985423;28;20275;-45
2021/12/02 12:56:36;;;;;;;1.47;0.90;;;2.40;99.90;;;;;;4964826;28;20252;-45
2021/12/02 12:59:13;;;;;;;2.97;1.07;;;2.40;99.90;;;;;;4985929;28;21689;-45
2021/12/02 13:01:41;;;;;;;0.83;0.70;;;2.50;99.90;;;;;;4983198;28;20290;-45
2021/12/02 13:04:18;;;;;;;1.67;1.00;;;2.40;99.90;;;;;;5001139;28;20251;-45
2021/12/02 13:07:01;;;;;;;1.27;1.17;;;2.40;99.90;;;;;;4987122;28;20221;-45
2021/12/02 13:09:56;;;;;;;3.70;1.37;;;2.40;99.90;;;;;;4994053;28;20321;-45
2021/12/02 13:12:47;;;;;;;3.30;1.60;;;2.40;99.90;;;;;;4979320;28;20211;-45
2021/12/02 13:15:18;;;;;;;0.70;0.70;;;2.40;99.90;;;;;;4973442;28;20689;-46
2021/12/02 13:17:47;;;;;;;0.97;0.93;;;2.40;99.90;;;;;;4997388;28;20200;-47
2021/12/02 13:20:37;;;;;;;1.30;0.80;;;2.40;99.90;;;;;;4980569;28;20265;-48